Terminal Aerodrome Forecast
Issued by NWS

Home | Current Version | Previous Version | Graphics & Text | Print | Product List | Glossary On
Versions: 1 2 3 4 5 6 7 8 9 10 11 12 13 14 15 16
000
FTUS43 KMPX 231120
TAFRNH
TAF
KRNH 231120Z 2312/2412 14007KT P6SM OVC080
     FM231700 16014KT P6SM OVC025
     FM232000 15012KT P6SM VCSH OVC015
     FM240000 15010KT 6SM -SHRA OVC008
     FM240600 11004KT 1 1/2SM -SHRA BR OVC008
     FM241100 04005KT 3SM -RA BR OVC003=

USA.gov is the U.S. government's official web portal to all federal, state and local government web resources and services.